Terminal Aerodrome Forecast
Issued by NWS

Home | Current Version | Previous Version | Text Only | Print | Product List | Glossary On
Versions: 1 2 3 4 5 6 7 8 9 10 11 12 13 14 15 16 17 18 19 20 21
000
FTUS43 KMQT 011700
TAFCMX
TAF
KCMX 011736Z 0118/0218 16011G20KT P6SM SCT012 BKN025
      TEMPO 0118/0119 BKN012
     FM012300 17009KT P6SM -SHRA SCT015 OVC025
     FM020300 17007KT 5SM -SHRA BR OVC015
     FM020800 22005KT 3SM -SHRA BR OVC010
     FM021300 22005KT 5SM BR OVC015=

USA.gov is the U.S. government's official web portal to all federal, state and local government web resources and services.